Time,TemperatureF,DewpointF,PressureIn,WindDirection,WindDirectionDegrees,WindSpeedMPH,WindSpeedGustMPH,Humidity,HourlyPrecipIn,Conditions,Clouds,dailyrainin,SoftwareType,DateUTC
2013-11-03 00:05:00,40.8,38.0,30.19,NNE,17,0.0,0.0,88,0.00,,,0.00,weatherlink.com 1.10,2013-11-03 05:05:00,
2013-11-03 00:20:00,40.9,38.0,30.19,NNE,17,0.0,0.0,88,0.00,,,0.00,weatherlink.com 1.10,2013-11-03 05:20:00,
2013-11-03 00:35:00,40.6,37.0,30.18,NNE,18,0.0,0.0,87,0.00,,,0.00,weatherlink.com 1.10,2013-11-03 05:35:00,
2013-11-03 00:50:00,40.5,37.0,30.18,NNE,19,0.0,0.0,88,0.00,,,0.00,weatherlink.com 1.10,2013-11-03 05:50:00,
2013-11-03 01:05:00,40.7,38.0,30.17,ENE,77,0.0,0.0,88,0.00,,,0.00,weatherlink.com 1.10,2013-11-03 06:05:00,
2013-11-03 01:20:00,41.0,37.0,30.17,ENE,77,0.0,0.0,86,0.00,,,0.00,weatherlink.com 1.10,2013-11-03 06:20:00,
2013-11-03 01:35:00,40.5,36.0,30.17,ENE,77,0.0,0.0,85,0.00,,,0.00,weatherlink.com 1.10,2013-11-03 06:35:00,
2013-11-03 01:50:00,39.9,36.0,30.18,ENE,77,0.0,0.0,87,0.00,,,0.00,weatherlink.com 1.10,2013-11-03 06:50:00,
2013-11-03 01:05:00,40.0,37.0,30.18,ENE,77,0.0,0.0,87,0.00,,,0.00,weatherlink.com 1.10,2013-11-03 07:05:00,
2013-11-03 01:35:00,40.2,36.0,30.18,ENE,77,0.0,0.0,86,0.00,,,0.00,weatherlink.com 1.10,2013-11-03 07:35:00,
2013-11-03 01:50:00,39.6,36.0,30.17,ENE,77,0.0,0.0,85,0.00,,,0.00,weatherlink.com 1.10,2013-11-03 07:50:00,
2013-11-03 02:05:00,39.4,36.0,30.17,ENE,77,0.0,0.0,86,0.00,,,0.00,weatherlink.com 1.10,2013-11-03 08:05:00,
2013-11-03 02:20:00,39.9,36.0,30.17,ENE,78,0.0,0.0,85,0.00,,,0.00,weatherlink.com 1.10,2013-11-03 08:20:00,
2013-11-03 02:35:00,40.5,36.0,30.16,ESE,109,0.0,0.0,83,0.00,,,0.00,weatherlink.com 1.10,2013-11-03 08:35:00,
2013-11-03 02:50:00,40.5,35.0,30.16,ESE,111,0.0,0.0,82,0.00,,,0.00,weatherlink.com 1.10,2013-11-03 08:50:00,
2013-11-03 03:05:00,40.2,35.0,30.16,ESE,111,0.0,0.0,82,0.00,,,0.00,weatherlink.com 1.10,2013-11-03 09:05:00,
2013-11-03 03:20:00,39.7,35.0,30.16,ESE,107,0.0,0.0,84,0.00,,,0.00,weatherlink.com 1.10,2013-11-03 09:20:00,
2013-11-03 03:35:00,39.5,35.0,30.16,ESE,107,0.0,0.0,85,0.00,,,0.00,weatherlink.com 1.10,2013-11-03 09:35:00,
2013-11-03 03:50:00,39.4,35.0,30.16,ESE,107,0.0,0.0,85,0.00,,,0.00,weatherlink.com 1.10,2013-11-03 09:50:00,
2013-11-03 04:05:00,39.2,35.0,30.16,ESE,107,0.0,0.0,85,0.00,,,0.00,weatherlink.com 1.10,2013-11-03 10:05:00,
2013-11-03 04:20:00,39.0,35.0,30.16,ESE,107,0.0,0.0,86,0.00,,,0.00,weatherlink.com 1.10,2013-11-03 10:20:00,
2013-11-03 04:35:00,38.9,35.0,30.16,ESE,107,0.0,0.0,86,0.00,,,0.00,weatherlink.com 1.10,2013-11-03 10:35:00,
2013-11-03 04:50:00,38.7,35.0,30.16,ESE,107,0.0,0.0,86,0.00,,,0.00,weatherlink.com 1.10,2013-11-03 10:50:00,
2013-11-03 05:20:00,38.7,35.0,30.16,ESE,107,0.0,0.0,86,0.00,,,0.00,weatherlink.com 1.10,2013-11-03 11:20:00,
2013-11-03 05:35:00,38.4,35.0,30.16,ESE,107,0.0,0.0,86,0.00,,,0.00,weatherlink.com 1.10,2013-11-03 11:35:00,
2013-11-03 05:50:00,38.3,35.0,30.16,ESE,112,0.0,0.0,86,0.00,,,0.00,weatherlink.com 1.10,2013-11-03 11:50:00,
2013-11-03 06:05:00,38.6,35.0,30.15,ESE,113,1.0,5.0,86,0.00,,,0.00,weatherlink.com 1.10,2013-11-03 12:05:00,
2013-11-03 06:21:00,38.8,35.0,30.15,ESE,114,1.0,5.0,86,0.00,,,0.00,weatherlink.com 1.10,2013-11-03 12:21:00,
2013-11-03 06:36:00,39.2,35.0,30.14,ESE,114,3.0,4.0,85,0.00,,,0.00,weatherlink.com 1.10,2013-11-03 12:36:00,
2013-11-03 06:51:00,39.4,35.0,30.14,ESE,114,1.0,3.0,84,0.00,,,0.00,weatherlink.com 1.10,2013-11-03 12:51:00,
2013-11-03 07:06:00,39.7,36.0,30.14,ESE,121,2.0,4.0,85,0.00,,,0.00,weatherlink.com 1.10,2013-11-03 13:06:00,
2013-11-03 07:21:00,40.4,36.0,30.14,SE,134,0.0,2.0,84,0.00,,,0.00,weatherlink.com 1.10,2013-11-03 13:21:00,
2013-11-03 07:36:00,41.4,37.0,30.15,SE,133,0.0,1.0,84,0.00,,,0.00,weatherlink.com 1.10,2013-11-03 13:36:00,
2013-11-03 07:51:00,43.4,38.0,30.15,SE,136,0.0,2.0,82,0.00,,,0.00,weatherlink.com 1.10,2013-11-03 13:51:00,
2013-11-03 08:06:00,46.4,40.0,30.16,SE,136,0.0,3.0,77,0.00,,,0.00,weatherlink.com 1.10,2013-11-03 14:06:00,
2013-11-03 08:21:00,49.0,40.0,30.16,SE,146,0.0,6.0,71,0.00,,,0.00,weatherlink.com 1.10,2013-11-03 14:21:00,
2013-11-03 08:36:00,51.4,39.0,30.16,SE,144,10.0,15.0,64,0.00,,,0.00,weatherlink.com 1.10,2013-11-03 14:36:00,
2013-11-03 08:51:00,51.9,39.0,30.16,SSE,152,6.0,16.0,61,0.00,,,0.00,weatherlink.com 1.10,2013-11-03 14:51:00,
2013-11-03 09:06:00,52.7,39.0,30.15,SSE,153,10.0,15.0,60,0.00,,,0.00,weatherlink.com 1.10,2013-11-03 15:06:00,
2013-11-03 09:21:00,53.3,39.0,30.15,SSE,150,8.0,16.0,59,0.00,,,0.00,weatherlink.com 1.10,2013-11-03 15:21:00,
2013-11-03 09:36:00,54.4,40.0,30.14,SE,128,7.0,18.0,58,0.00,,,0.00,weatherlink.com 1.10,2013-11-03 15:36:00,
2013-11-03 09:51:00,55.8,39.0,30.14,SSE,151,11.0,17.0,54,0.00,,,0.00,weatherlink.com 1.10,2013-11-03 15:51:00,
2013-11-03 10:06:00,56.8,39.0,30.14,SSE,158,7.0,20.0,51,0.00,,,0.00,weatherlink.com 1.10,2013-11-03 16:06:00,
2013-11-03 10:21:00,58.1,39.0,30.13,SSE,160,13.0,21.0,49,0.00,,,0.00,weatherlink.com 1.10,2013-11-03 16:21:00,
2013-11-03 10:36:00,58.3,39.0,30.12,SSE,167,9.0,22.0,49,0.00,,,0.00,weatherlink.com 1.10,2013-11-03 16:36:00,
2013-11-03 10:51:00,59.8,39.0,30.13,South,186,11.0,18.0,47,0.00,,,0.00,weatherlink.com 1.10,2013-11-03 16:51:00,
2013-11-03 11:06:00,60.2,39.0,30.13,SSE,163,10.0,16.0,45,0.00,,,0.00,weatherlink.com 1.10,2013-11-03 17:06:00,
2013-11-03 11:21:00,60.5,39.0,30.12,SSE,163,3.0,13.0,45,0.00,,,0.00,weatherlink.com 1.10,2013-11-03 17:21:00,
2013-11-03 11:37:00,60.9,40.0,30.12,SSE,150,6.0,15.0,46,0.00,,,0.00,weatherlink.com 1.10,2013-11-03 17:37:00,
2013-11-03 11:52:00,61.6,39.0,30.10,SSE,150,5.0,17.0,43,0.00,,,0.00,weatherlink.com 1.10,2013-11-03 17:52:00,
2013-11-03 12:07:00,61.3,40.0,30.09,South,178,13.0,19.0,45,0.00,,,0.00,weatherlink.com 1.10,2013-11-03 18:07:00,
2013-11-03 12:22:00,61.8,39.0,30.08,South,178,7.0,22.0,44,0.00,,,0.00,weatherlink.com 1.10,2013-11-03 18:22:00,
2013-11-03 12:37:00,62.5,40.0,30.08,SE,128,4.0,13.0,43,0.00,,,0.00,weatherlink.com 1.10,2013-11-03 18:37:00,
2013-11-03 12:52:00,63.5,40.0,30.06,South,190,7.0,17.0,42,0.00,,,0.00,weatherlink.com 1.10,2013-11-03 18:52:00,
2013-11-03 13:07:00,63.4,40.0,30.05,SSE,167,14.0,17.0,42,0.00,,,0.00,weatherlink.com 1.10,2013-11-03 19:07:00,
2013-11-03 13:22:00,62.9,40.0,30.02,SE,137,6.0,19.0,43,0.00,,,0.00,weatherlink.com 1.10,2013-11-03 19:22:00,
2013-11-03 13:37:00,62.1,39.0,30.01,SSE,153,6.0,19.0,43,0.00,,,0.00,weatherlink.com 1.10,2013-11-03 19:37:00,
2013-11-03 13:52:00,61.9,40.0,29.98,ESE,123,15.0,20.0,45,0.00,,,0.00,weatherlink.com 1.10,2013-11-03 19:52:00,
2013-11-03 14:07:00,62.6,40.0,29.96,SE,132,12.0,23.0,44,0.00,,,0.00,weatherlink.com 1.10,2013-11-03 20:07:00,
2013-11-03 14:22:00,62.3,39.0,29.97,SSE,157,12.0,24.0,43,0.00,,,0.00,weatherlink.com 1.10,2013-11-03 20:22:00,
2013-11-03 14:37:00,62.8,40.0,29.98,SE,142,15.0,19.0,44,0.00,,,0.00,weatherlink.com 1.10,2013-11-03 20:37:00,
2013-11-03 14:52:00,63.5,40.0,30.01,SSE,167,8.0,18.0,43,0.00,,,0.00,weatherlink.com 1.10,2013-11-03 20:52:00,
2013-11-03 15:07:00,63.2,41.0,30.02,SSE,148,8.0,18.0,44,0.00,,,0.00,weatherlink.com 1.10,2013-11-03 21:07:00,
2013-11-03 15:22:00,62.8,42.0,30.02,SSE,157,4.0,17.0,46,0.00,,,0.00,weatherlink.com 1.10,2013-11-03 21:22:00,
2013-11-03 15:37:00,62.0,40.0,30.01,SE,146,9.0,16.0,45,0.00,,,0.00,weatherlink.com 1.10,2013-11-03 21:37:00,
2013-11-03 15:52:00,61.4,41.0,30.00,SSE,160,3.0,17.0,47,0.00,,,0.00,weatherlink.com 1.10,2013-11-03 21:52:00,
2013-11-03 16:22:00,60.3,41.0,29.94,SSE,150,3.0,16.0,49,0.00,,,0.00,weatherlink.com 1.10,2013-11-03 22:22:00,
2013-11-03 16:37:00,60.5,41.0,29.95,SE,127,15.0,21.0,49,0.00,,,0.00,weatherlink.com 1.10,2013-11-03 22:37:00,
2013-11-03 16:52:00,60.3,41.0,29.96,SE,138,11.0,24.0,49,0.00,,,0.00,weatherlink.com 1.10,2013-11-03 22:52:00,
2013-11-03 17:07:00,59.9,41.0,29.97,SSE,151,7.0,16.0,50,0.00,,,0.00,weatherlink.com 1.10,2013-11-03 23:07:00,
2013-11-03 17:22:00,59.6,40.0,29.99,South,182,5.0,16.0,49,0.00,,,0.00,weatherlink.com 1.10,2013-11-03 23:22:00,
2013-11-03 17:37:00,59.4,40.0,29.98,SSE,157,2.0,15.0,49,0.00,,,0.00,weatherlink.com 1.10,2013-11-03 23:37:00,
2013-11-03 17:52:00,59.1,40.0,29.97,SE,141,5.0,11.0,50,0.00,,,0.00,weatherlink.com 1.10,2013-11-03 23:52:00,
2013-11-03 18:07:00,58.9,41.0,29.96,SSE,157,6.0,11.0,51,0.00,,,0.00,weatherlink.com 1.10,2013-11-04 00:07:00,
2013-11-03 18:22:00,58.7,41.0,29.96,SE,138,9.0,12.0,52,0.00,,,0.00,weatherlink.com 1.10,2013-11-04 00:22:00,
2013-11-03 18:37:00,58.5,41.0,29.96,ESE,119,3.0,12.0,53,0.00,,,0.00,weatherlink.com 1.10,2013-11-04 00:37:00,
2013-11-03 18:52:00,58.4,42.0,29.99,SSE,160,2.0,17.0,54,0.00,,,0.00,weatherlink.com 1.10,2013-11-04 00:52:00,
2013-11-03 19:07:00,58.4,42.0,29.99,SSE,154,2.0,8.0,54,0.00,,,0.00,weatherlink.com 1.10,2013-11-04 01:07:00,
2013-11-03 19:22:00,58.4,42.0,30.01,SSE,162,0.0,8.0,54,0.00,,,0.00,weatherlink.com 1.10,2013-11-04 01:22:00,
2013-11-03 19:37:00,58.1,42.0,30.01,SSW,196,0.0,9.0,55,0.00,,,0.00,weatherlink.com 1.10,2013-11-04 01:37:00,
2013-11-03 19:52:00,57.9,42.0,30.01,SSE,159,4.0,9.0,56,0.00,,,0.00,weatherlink.com 1.10,2013-11-04 01:52:00,
2013-11-03 20:07:00,57.7,42.0,30.00,SE,144,5.0,11.0,57,0.00,,,0.00,weatherlink.com 1.10,2013-11-04 02:07:00,
2013-11-03 20:22:00,57.5,43.0,30.01,SSE,150,4.0,10.0,58,0.00,,,0.00,weatherlink.com 1.10,2013-11-04 02:22:00,
2013-11-03 20:37:00,57.5,43.0,29.98,SE,130,6.0,14.0,59,0.00,,,0.00,weatherlink.com 1.10,2013-11-04 02:37:00,
2013-11-03 20:52:00,57.3,43.0,29.98,SE,128,11.0,21.0,60,0.00,,,0.00,weatherlink.com 1.10,2013-11-04 02:52:00,
2013-11-03 21:07:00,57.2,44.0,29.99,SE,136,9.0,18.0,61,0.00,,,0.00,weatherlink.com 1.10,2013-11-04 03:07:00,
2013-11-03 21:22:00,57.1,44.0,29.98,SSE,154,7.0,19.0,62,0.00,,,0.00,weatherlink.com 1.10,2013-11-04 03:22:00,
2013-11-03 21:37:00,57.1,44.0,29.98,SE,142,5.0,14.0,62,0.00,,,0.00,weatherlink.com 1.10,2013-11-04 03:37:00,
2013-11-03 21:52:00,57.2,45.0,29.98,SSE,148,8.0,12.0,63,0.00,,,0.00,weatherlink.com 1.10,2013-11-04 03:52:00,
2013-11-03 22:07:00,57.2,45.0,29.97,SE,142,12.0,19.0,63,0.00,,,0.00,weatherlink.com 1.10,2013-11-04 04:07:00,
2013-11-03 22:22:00,57.3,45.0,29.98,South,173,13.0,15.0,63,0.00,,,0.00,weatherlink.com 1.10,2013-11-04 04:22:00,
2013-11-03 22:37:00,57.3,45.0,29.99,SSE,163,2.0,14.0,63,0.00,,,0.00,weatherlink.com 1.10,2013-11-04 04:37:00,
2013-11-03 22:52:00,56.9,45.0,29.96,SSE,159,10.0,13.0,65,0.00,,,0.00,weatherlink.com 1.10,2013-11-04 04:52:00,
2013-11-03 23:07:00,56.7,45.0,29.96,SSE,150,4.0,16.0,65,0.00,,,0.00,weatherlink.com 1.10,2013-11-04 05:07:00,
2013-11-03 23:22:00,56.7,45.0,29.95,SE,134,7.0,19.0,65,0.00,,,0.00,weatherlink.com 1.10,2013-11-04 05:22:00,
2013-11-03 23:37:00,56.6,45.0,29.95,SSE,163,5.0,19.0,66,0.00,,,0.00,weatherlink.com 1.10,2013-11-04 05:37:00,
2013-11-03 23:52:00,56.4,45.0,29.96,SSE,159,6.0,19.0,66,0.00,,,0.00,weatherlink.com 1.10,2013-11-04 05:52:00,